Terminal Aerodrome Forecast
Issued by NWS Bismarck, ND

Home | Current Version | Previous Version | Text Only | Print | Product List | Glossary Off
Versions: 1 2 3 4 5 6 7 8 9 10 11 12 13 14 15 16

017
FTUS43 KBIS 212331
TAFISN
TAF
KISN 212331Z 2200/2224 19015G21KT P6SM SKC
     FM220400 18010KT P6SM BKN200
     FM220600 22007KT P6SM BKN120
     FM220900 25005KT P6SM SCT140=

USA.gov is the U.S. government's official web portal to all federal, state and local government web resources and services.